ususleCam  ususleCam


Besuchen Sie unsere anderen Wetter Stationen:

Template documentation
and downloads

And another site



METAR-Meldungen aus der Umgebung

   
LSZH - Zurich-Kloten (a, Switzerland
Entfernung von der Station bis: NW 47 km
Aktualisierung: 23-01-2020 20:20
Bewölkt  
Bewölkt  
   Wind: variiert 4 km/h
Wind: variiert 4 km/h
Temperatur: -2°C
Taupunkt: -4°C
Luftfeuchte: 86%
Luftdruck: 1027 hPa
Bewölkung: Bewölkt
Sichtbarkeit: 7 km
Bewölkung: Bewölkt 800 ft
LSZH 231920Z VRB02KT 7000 OVC008 M02/M04 Q1027 NOSIG
LSZL - Locarno, Switzerland
Entfernung von der Station bis: S 119 km
Aktualisierung: 23-01-2020 20:20
Klar  
Klar  
   Wind: NNO 6 km/h
Wind: NNO 6 km/h
Temperatur: 3°C
Gefühlt: 2°C
Taupunkt: -3°C
Luftfeuchte: 65%
Luftdruck: 1030 hPa
Bewölkung: Klar
Sichtbarkeit: 10 km
Bewölkung: Klar
LSZL 231920Z AUTO 02003KT 340V040 9999NDV NCD 03/M03 Q1030 RMK
LSZS - Samedan, Switzerland
Entfernung von der Station bis: SO 101 km
Aktualisierung: 23-01-2020 20:20
Klar  
Klar  
   Wind: variiert 2 km/h
Wind: variiert 2 km/h
Temperatur: -10°C
Taupunkt: -14°C
Luftfeuchte: 73%
Luftdruck: 1027 hPa
Sichtbarkeit: More than 10 km
Bewölkung: Klar
LSZS 231920Z AUTO VRB01KT CAVOK M10/M14 Q1027
LSME - Emmen, Switzerland
Entfernung von der Station bis: WSW 58 km
Aktualisierung: 23-01-2020 20:20
Bewölkt  
Bewölkt  
   Wind: Windstille
Wind: Windstille
Temperatur: -1°C
Taupunkt: -3°C
Luftfeuchte: 86%
Luftdruck: 1027 hPa
Bewölkung: Bewölkt
Sichtbarkeit: 6 km
Bewölkung: Teilweise bewölkt 700 ft,
Bewölkt 900 ft
LSME 231920Z AUTO 00000KT 6000NDV SCT007 OVC009 M01/M03 Q1027 RMK
LSZB - Bern/Belp, Switzerland
Entfernung von der Station bis: WSW 122 km
Aktualisierung: 23-01-2020 20:20
Bewölkt  
Bewölkt  
   Wind: variiert 2 km/h
Wind: variiert 2 km/h
Temperatur: -2°C
Taupunkt: -3°C
Luftfeuchte: 93%
Luftdruck: 1026 hPa
Bewölkung: Bewölkt
Sichtbarkeit: 5 km
Bewölkung: Bewölkt 600 ft
LSZB 231920Z AUTO VRB01KT 5000 OVC006 M02/M03 Q1026
LFSB - Bale/Mulhouse, France
Entfernung von der Station bis: WNW 121 km
Aktualisierung: 23-01-2020 20:30
Nebel, Stark bewölkt  
Nebel, Stark bewölkt  
   Wind: NW 7 km/h
Wind: NW 7 km/h
Temperatur: -2°C
Gefühlt: -5°C
Taupunkt: -3°C
Luftfeuchte: 93%
Luftdruck: 1027 hPa
Bewölkung: Stark bewölkt
Sichtbarkeit: 4 km
Bewölkung: Stark bewölkt 1500 ft
LFSB 231930Z 32004KT 4000 BR BKN015 M02/M03 Q1027 TEMPO 2000 BR BKN005

Script entwickelt von  Saratoga-weather.org Angepasst für das Template von  Weerstation Leuven

Von uns verwendete Ausrüstung:

Wetterstation
Davis Vue

Wetterprogramm
Weather Display

Davis Vue

Weather Display